Česky Dansk Deutsch English Español Suomi Français Magyar Italiano Nederlands norsk Polski Português svenska Türkçe

 

Het Weer

Cap-Skirring (Senegal)

08:00, 8 augustus 2016 (GMT)

NWNNE
WE
SWSSE
Home            
Cap-Skirring Ziguinchor Banjul / Yundum Bissau Aeroport Kolda Kaolack Bafata Diourbel Dakar / Yoff Boke Tambacounda Linguere Saint-Louis Conakry / Gbessia Rosso Kedougou Kindia Labe Podor Matam Kaedi Lungi Kenieba

Om een weerknop op uw website of weblog te plaatsen, copieer onderstaande code en plak die in uw pagina. In het eerste vakje staat HTML-code, in het tweede vakje UBB-code.


Add to Google

Details

Wind speed:2 bf, 6 kn, 3.1 m/s, 6.9 miles/h, 11.1 km/h
Wind direction:NW, 320°
Visibility:Greater than 10000 m, 10 km, 32800 ft, 6.2 miles
Clouds:Durchbrochene Bewölkung at 13000 ft, 3962 m
Temperature:27°C, 81°F
Gefühlte Temperatur:31°C, 87°F
Dew-point:24°C, 75°F
Atmospheric pressure:1012 hPa, 759.1 mmHg, 29.88 inHg, 0.999 atm
Relative humidity:83.7 %
METAR:GOGS 080800Z 32006KT 9999 EFW015 BKN130 27/24 Q1012

Snelkoppelingen

Actuele weersinformatie van de hele wereld. Voeg locaties toe met het plus (+) symbool. Deze snelkoppelingen kunnen worden toegevoegd aan Google.

Lid van de Technetium groep

website free tracking
StatCounter NetStat W3C Validator

17-05-2022 06:36:38
astro.technetium.be money.technetium.be phote.technetium.be tafeltennistafel.technetium.be www.ligfiets.net